EIN851 LEBB-EICK
Flight info
| Callsign | EIN851 |
|---|---|
| Flight time | 1h 38m |
| Altitude | 36000 |
| Route | DOSUL DCT DELOG DCT RIXIX DCT TIQUH DCT LARLA DCT ARKIL DCT ORTOM |
| Aircraft | A320/M-SDE2E3FGHIRWXY/LB1 |
Departure
| Time | 2026-04-27 19:55 |
|---|---|
| Airport | Bilbao Airport (LEBB) |
Arrival
| Time | 2026-04-27 21:33 |
|---|---|
| Airport | Cork International Airport (EICK) |
| Time | Latitude | Longitude | Altitude | Speed | Heading |
|---|---|---|---|---|---|
| 2026-04-27 19:38 | 43.30465 | -2.90739 | 162 ft | 0 kts | 27° |
| 2026-04-27 19:46 | 43.30463 | -2.90740 | 162 ft | 1 kts | 27° |
| 2026-04-27 19:46 | 43.30450 | -2.90750 | 162 ft | 2 kts | 27° |
| 2026-04-27 19:46 | 43.30436 | -2.90759 | 161 ft | 2 kts | 27° |
| 2026-04-27 19:46 | 43.30428 | -2.90765 | 161 ft | 2 kts | 26° |
| 2026-04-27 19:47 | 43.30413 | -2.90768 | 160 ft | 2 kts | 348° |
| 2026-04-27 19:47 | 43.30399 | -2.90760 | 160 ft | 2 kts | 320° |
| 2026-04-27 19:47 | 43.30391 | -2.90749 | 160 ft | 0 kts | 299° |
| 2026-04-27 19:47 | 43.30388 | -2.90740 | 160 ft | 0 kts | 295° |
| 2026-04-27 19:48 | 43.30388 | -2.90739 | 160 ft | 0 kts | 295° |
| 2026-04-27 19:50 | 43.30389 | -2.90743 | 160 ft | 1 kts | 295° |
| 2026-04-27 19:50 | 43.30400 | -2.90772 | 160 ft | 5 kts | 297° |
| 2026-04-27 19:50 | 43.30414 | -2.90839 | 160 ft | 9 kts | 274° |
| 2026-04-27 19:50 | 43.30416 | -2.90930 | 159 ft | 9 kts | 270° |
| 2026-04-27 19:51 | 43.30373 | -2.90996 | 157 ft | 11 kts | 206° |
| 2026-04-27 19:51 | 43.30309 | -2.91052 | 155 ft | 11 kts | 244° |
| 2026-04-27 19:51 | 43.30335 | -2.91162 | 153 ft | 14 kts | 297° |
| 2026-04-27 19:51 | 43.30386 | -2.91299 | 152 ft | 17 kts | 296° |
| 2026-04-27 19:52 | 43.30445 | -2.91459 | 150 ft | 19 kts | 297° |
| 2026-04-27 19:52 | 43.30486 | -2.91572 | 149 ft | 20 kts | 296° |
| 2026-04-27 19:52 | 43.30573 | -2.91813 | 145 ft | 22 kts | 297° |
| 2026-04-27 19:52 | 43.30638 | -2.91989 | 142 ft | 20 kts | 296° |
| 2026-04-27 19:53 | 43.30761 | -2.92323 | 133 ft | 17 kts | 296° |
| 2026-04-27 19:53 | 43.30803 | -2.92448 | 129 ft | 10 kts | 284° |
| 2026-04-27 19:53 | 43.30768 | -2.92510 | 127 ft | 10 kts | 181° |
| 2026-04-27 19:54 | 43.30692 | -2.92479 | 128 ft | 11 kts | 161° |
| 2026-04-27 19:54 | 43.30624 | -2.92445 | 128 ft | 8 kts | 151° |
| 2026-04-27 19:54 | 43.30599 | -2.92397 | 129 ft | 5 kts | 116° |
| 2026-04-27 19:54 | 43.30532 | -2.92210 | 134 ft | 52 kts | 116° |
| 2026-04-27 19:55 | 43.30267 | -2.91486 | 145 ft | 115 kts | 116° |
| 2026-04-27 19:55 | 43.29827 | -2.90284 | 180 ft | 163 kts | 115° |
| 2026-04-27 19:55 | 43.29297 | -2.88898 | 732 ft | 164 kts | 117° |
| 2026-04-27 19:55 | 43.28757 | -2.87534 | 1362 ft | 167 kts | 115° |
| 2026-04-27 19:56 | 43.28236 | -2.86123 | 1965 ft | 169 kts | 114° |
| 2026-04-27 19:56 | 43.27701 | -2.84620 | 2311 ft | 183 kts | 114° |
| 2026-04-27 19:56 | 43.27114 | -2.82982 | 2641 ft | 200 kts | 114° |
| 2026-04-27 19:56 | 43.26459 | -2.81176 | 2896 ft | 223 kts | 115° |
| 2026-04-27 19:57 | 43.25740 | -2.79216 | 3295 ft | 240 kts | 115° |
| 2026-04-27 19:57 | 43.24966 | -2.77112 | 3722 ft | 257 kts | 115° |
| 2026-04-27 19:57 | 43.24386 | -2.74788 | 4347 ft | 263 kts | 91° |
| 2026-04-27 19:57 | 43.24813 | -2.72389 | 5121 ft | 263 kts | 57° |
| 2026-04-27 19:58 | 43.26159 | -2.70760 | 5873 ft | 268 kts | 26° |
| 2026-04-27 19:58 | 43.27939 | -2.69982 | 6606 ft | 273 kts | 12° |
| 2026-04-27 19:58 | 43.29844 | -2.69665 | 7321 ft | 280 kts | 3° |
| 2026-04-27 19:58 | 43.31785 | -2.69701 | 8051 ft | 285 kts | 356° |
| 2026-04-27 19:59 | 43.33739 | -2.70064 | 8798 ft | 289 kts | 348° |
| 2026-04-27 19:59 | 43.35692 | -2.70764 | 9540 ft | 293 kts | 341° |
| 2026-04-27 19:59 | 43.37574 | -2.71791 | 10271 ft | 296 kts | 333° |
| 2026-04-27 19:59 | 43.39419 | -2.73178 | 10795 ft | 307 kts | 326° |
| 2026-04-27 20:00 | 43.41159 | -2.74932 | 11254 ft | 319 kts | 318° |
| 2026-04-27 20:00 | 43.42750 | -2.77035 | 11960 ft | 321 kts | 311° |
| 2026-04-27 20:00 | 43.44146 | -2.79446 | 12710 ft | 321 kts | 303° |
| 2026-04-27 20:00 | 43.45291 | -2.82075 | 13423 ft | 322 kts | 295° |
| 2026-04-27 20:01 | 43.46170 | -2.84891 | 14116 ft | 323 kts | 288° |
| 2026-04-27 20:01 | 43.46771 | -2.87856 | 14754 ft | 325 kts | 280° |
| 2026-04-27 20:01 | 43.47080 | -2.90957 | 15379 ft | 327 kts | 272° |
| 2026-04-27 20:01 | 43.47080 | -2.94086 | 15981 ft | 330 kts | 265° |
| 2026-04-27 20:02 | 43.46771 | -2.97183 | 16629 ft | 330 kts | 257° |
| 2026-04-27 20:02 | 43.46158 | -3.00208 | 17235 ft | 331 kts | 250° |
| 2026-04-27 20:02 | 43.45389 | -3.03176 | 17800 ft | 334 kts | 253° |
| 2026-04-27 20:02 | 43.45065 | -3.06332 | 18333 ft | 338 kts | 271° |
| 2026-04-27 20:03 | 43.45560 | -3.09488 | 18860 ft | 344 kts | 292° |
| 2026-04-27 20:03 | 43.46898 | -3.12224 | 19362 ft | 352 kts | 314° |
| 2026-04-27 20:03 | 43.48953 | -3.14126 | 19838 ft | 361 kts | 336° |
| 2026-04-27 20:03 | 43.51343 | -3.15192 | 20339 ft | 364 kts | 339° |
| 2026-04-27 20:04 | 43.53612 | -3.16737 | 20764 ft | 364 kts | 323° |
| 2026-04-27 20:04 | 43.55665 | -3.18745 | 21253 ft | 367 kts | 321° |
| 2026-04-27 20:04 | 43.57729 | -3.20835 | 21724 ft | 370 kts | 321° |
| 2026-04-27 20:04 | 43.59111 | -3.22261 | 22034 ft | 372 kts | 320° |
| 2026-04-27 20:05 | 43.61850 | -3.25124 | 22644 ft | 375 kts | 320° |
| 2026-04-27 20:05 | 43.63937 | -3.27324 | 23091 ft | 378 kts | 320° |
| 2026-04-27 20:05 | 43.66019 | -3.29524 | 23519 ft | 381 kts | 320° |
| 2026-04-27 20:05 | 43.68135 | -3.31760 | 23964 ft | 384 kts | 320° |
| 2026-04-27 20:06 | 43.70266 | -3.33960 | 24407 ft | 386 kts | 320° |
| 2026-04-27 20:06 | 43.72443 | -3.36174 | 24839 ft | 389 kts | 320° |
| 2026-04-27 20:06 | 43.74616 | -3.38385 | 25252 ft | 391 kts | 320° |
| 2026-04-27 20:06 | 43.76833 | -3.40645 | 25645 ft | 394 kts | 320° |
| 2026-04-27 20:07 | 43.79025 | -3.42886 | 26038 ft | 396 kts | 320° |
| 2026-04-27 20:07 | 43.81249 | -3.45162 | 26434 ft | 398 kts | 320° |
| 2026-04-27 20:07 | 43.83477 | -3.47448 | 26808 ft | 400 kts | 320° |
| 2026-04-27 20:07 | 43.85684 | -3.49717 | 27165 ft | 403 kts | 320° |
| 2026-04-27 20:08 | 43.87961 | -3.52057 | 27532 ft | 405 kts | 320° |
| 2026-04-27 20:08 | 43.90225 | -3.54386 | 27885 ft | 407 kts | 320° |
| 2026-04-27 20:08 | 43.92496 | -3.56727 | 28252 ft | 409 kts | 320° |
| 2026-04-27 20:08 | 43.94761 | -3.59065 | 28594 ft | 411 kts | 320° |
| 2026-04-27 20:09 | 43.97068 | -3.61447 | 28934 ft | 413 kts | 320° |
| 2026-04-27 20:09 | 43.99361 | -3.63818 | 29250 ft | 415 kts | 320° |
| 2026-04-27 20:09 | 44.01679 | -3.66217 | 29562 ft | 417 kts | 319° |
| 2026-04-27 20:09 | 44.03989 | -3.68611 | 29869 ft | 419 kts | 319° |
| 2026-04-27 20:10 | 44.06342 | -3.71048 | 30183 ft | 421 kts | 319° |
| 2026-04-27 20:10 | 44.08681 | -3.73475 | 30479 ft | 423 kts | 319° |
| 2026-04-27 20:10 | 44.11049 | -3.75937 | 30799 ft | 424 kts | 319° |
| 2026-04-27 20:10 | 44.13394 | -3.78377 | 31097 ft | 425 kts | 318° |
| 2026-04-27 20:11 | 44.15739 | -3.80820 | 31383 ft | 426 kts | 318° |
| 2026-04-27 20:11 | 44.18125 | -3.83306 | 31685 ft | 426 kts | 318° |
| 2026-04-27 20:11 | 44.20472 | -3.85754 | 31973 ft | 427 kts | 318° |
| 2026-04-27 20:11 | 44.22858 | -3.88250 | 32277 ft | 427 kts | 318° |
| 2026-04-27 20:12 | 44.25213 | -3.90712 | 32546 ft | 427 kts | 318° |
| 2026-04-27 20:12 | 44.26813 | -3.92382 | 32717 ft | 428 kts | 319° |
| 2026-04-27 20:12 | 44.30074 | -3.95473 | 33081 ft | 431 kts | 323° |
| 2026-04-27 20:12 | 44.32670 | -3.97606 | 33338 ft | 433 kts | 326° |
| 2026-04-27 20:13 | 44.35370 | -3.99546 | 33587 ft | 435 kts | 329° |
| 2026-04-27 20:13 | 44.38100 | -4.01244 | 33806 ft | 438 kts | 332° |
| 2026-04-27 20:13 | 44.40953 | -4.02764 | 34073 ft | 439 kts | 335° |
| 2026-04-27 20:13 | 44.43829 | -4.04191 | 34392 ft | 437 kts | 335° |
| 2026-04-27 20:14 | 44.46686 | -4.05591 | 34633 ft | 436 kts | 335° |
| 2026-04-27 20:14 | 44.49544 | -4.06998 | 34801 ft | 436 kts | 335° |
| 2026-04-27 20:14 | 44.52419 | -4.08414 | 34926 ft | 438 kts | 335° |
| 2026-04-27 20:14 | 44.55264 | -4.09822 | 35038 ft | 439 kts | 335° |
| 2026-04-27 20:15 | 44.58134 | -4.11246 | 35169 ft | 440 kts | 335° |
| 2026-04-27 20:15 | 44.61035 | -4.12686 | 35322 ft | 440 kts | 335° |
| 2026-04-27 20:15 | 44.63906 | -4.14112 | 35479 ft | 440 kts | 335° |
| 2026-04-27 20:15 | 44.66796 | -4.15551 | 35600 ft | 441 kts | 335° |
| 2026-04-27 20:16 | 44.69665 | -4.16979 | 35705 ft | 442 kts | 335° |
| 2026-04-27 20:16 | 44.72553 | -4.18421 | 35843 ft | 441 kts | 335° |
| 2026-04-27 20:16 | 44.75434 | -4.19859 | 35979 ft | 441 kts | 335° |
| 2026-04-27 20:16 | 44.78347 | -4.21316 | 36067 ft | 442 kts | 335° |
| 2026-04-27 20:17 | 44.84134 | -4.24210 | 36082 ft | 443 kts | 335° |
| 2026-04-27 20:17 | 44.88950 | -4.26624 | 36078 ft | 442 kts | 335° |
| 2026-04-27 20:18 | 44.95680 | -4.30007 | 36074 ft | 443 kts | 335° |
| 2026-04-27 20:18 | 45.01463 | -4.32920 | 36090 ft | 443 kts | 335° |
| 2026-04-27 20:19 | 45.07281 | -4.35862 | 36097 ft | 444 kts | 335° |
| 2026-04-27 20:19 | 45.13060 | -4.38787 | 36092 ft | 444 kts | 335° |
| 2026-04-27 20:20 | 45.18899 | -4.41746 | 36097 ft | 443 kts | 335° |
| 2026-04-27 20:20 | 45.24715 | -4.44702 | 36093 ft | 445 kts | 335° |
| 2026-04-27 20:21 | 45.30507 | -4.47653 | 36095 ft | 445 kts | 335° |
| 2026-04-27 20:21 | 45.36328 | -4.50626 | 36094 ft | 445 kts | 335° |
| 2026-04-27 20:22 | 45.42137 | -4.53597 | 36092 ft | 446 kts | 335° |
| 2026-04-27 20:22 | 45.47985 | -4.56594 | 36111 ft | 445 kts | 336° |
| 2026-04-27 20:23 | 45.53791 | -4.59578 | 36098 ft | 446 kts | 335° |
| 2026-04-27 20:23 | 45.59596 | -4.62566 | 36082 ft | 446 kts | 336° |
| 2026-04-27 20:24 | 45.65408 | -4.65571 | 36089 ft | 446 kts | 335° |
| 2026-04-27 20:24 | 45.71253 | -4.68597 | 36090 ft | 446 kts | 335° |
| 2026-04-27 20:25 | 45.77063 | -4.71614 | 36098 ft | 446 kts | 335° |
| 2026-04-27 20:25 | 45.82869 | -4.74631 | 36098 ft | 446 kts | 335° |
| 2026-04-27 20:26 | 45.88690 | -4.77665 | 36115 ft | 446 kts | 336° |
| 2026-04-27 20:26 | 45.94508 | -4.80701 | 36110 ft | 447 kts | 335° |
| 2026-04-27 20:27 | 46.00352 | -4.83758 | 36111 ft | 447 kts | 336° |
| 2026-04-27 20:27 | 46.06212 | -4.86831 | 36113 ft | 447 kts | 336° |
| 2026-04-27 20:28 | 46.12027 | -4.89888 | 36115 ft | 447 kts | 336° |
| 2026-04-27 20:28 | 46.16872 | -4.92437 | 36114 ft | 447 kts | 336° |
| 2026-04-27 20:29 | 46.23690 | -4.96039 | 36133 ft | 447 kts | 336° |
| 2026-04-27 20:29 | 46.29534 | -4.99131 | 36124 ft | 447 kts | 336° |
| 2026-04-27 20:30 | 46.35372 | -5.02229 | 36121 ft | 447 kts | 336° |
| 2026-04-27 20:30 | 46.41170 | -5.05312 | 36130 ft | 447 kts | 336° |
| 2026-04-27 20:31 | 46.47009 | -5.08423 | 36119 ft | 447 kts | 336° |
| 2026-04-27 20:31 | 46.52808 | -5.11626 | 36136 ft | 447 kts | 336° |
| 2026-04-27 20:32 | 46.58599 | -5.14885 | 36129 ft | 447 kts | 336° |
| 2026-04-27 20:32 | 46.64359 | -5.18127 | 36124 ft | 447 kts | 336° |
| 2026-04-27 20:33 | 46.70162 | -5.21397 | 36132 ft | 447 kts | 336° |
| 2026-04-27 20:33 | 46.75970 | -5.24675 | 36128 ft | 447 kts | 336° |
| 2026-04-27 20:34 | 46.81755 | -5.27951 | 36116 ft | 448 kts | 336° |
| 2026-04-27 20:34 | 46.87539 | -5.31232 | 36132 ft | 448 kts | 337° |
| 2026-04-27 20:35 | 46.93311 | -5.34510 | 36123 ft | 447 kts | 337° |
| 2026-04-27 20:35 | 46.99118 | -5.37819 | 36117 ft | 448 kts | 337° |
| 2026-04-27 20:36 | 47.04901 | -5.41123 | 36135 ft | 448 kts | 337° |
| 2026-04-27 20:36 | 47.10703 | -5.44445 | 36146 ft | 449 kts | 337° |
| 2026-04-27 20:37 | 47.16497 | -5.47767 | 36142 ft | 449 kts | 337° |
| 2026-04-27 20:37 | 47.22322 | -5.51117 | 36147 ft | 449 kts | 337° |
| 2026-04-27 20:38 | 47.28124 | -5.54461 | 36147 ft | 449 kts | 337° |
| 2026-04-27 20:38 | 47.33914 | -5.57805 | 36146 ft | 449 kts | 337° |
| 2026-04-27 20:39 | 47.39722 | -5.61167 | 36154 ft | 450 kts | 338° |
| 2026-04-27 20:39 | 47.45558 | -5.64558 | 36157 ft | 454 kts | 338° |
| 2026-04-27 20:40 | 47.51455 | -5.68000 | 36159 ft | 457 kts | 338° |
| 2026-04-27 20:40 | 47.57333 | -5.71426 | 36160 ft | 456 kts | 339° |
| 2026-04-27 20:41 | 47.63194 | -5.74858 | 36171 ft | 454 kts | 340° |
| 2026-04-27 20:41 | 47.69054 | -5.78289 | 36170 ft | 450 kts | 340° |
| 2026-04-27 20:42 | 47.74833 | -5.81677 | 36172 ft | 448 kts | 340° |
| 2026-04-27 20:42 | 47.80629 | -5.85088 | 36170 ft | 447 kts | 340° |
| 2026-04-27 20:43 | 47.86168 | -5.88360 | 36178 ft | 447 kts | 340° |
| 2026-04-27 20:43 | 47.92016 | -5.91822 | 36185 ft | 447 kts | 340° |
| 2026-04-27 20:44 | 47.97794 | -5.95248 | 36179 ft | 447 kts | 341° |
| 2026-04-27 20:44 | 48.00682 | -5.96966 | 36505 ft | 447 kts | 341° |
| 2026-04-27 20:44 | 48.03550 | -5.98677 | 36064 ft | 445 kts | 341° |
| 2026-04-27 20:45 | 48.09286 | -6.02095 | 36162 ft | 445 kts | 341° |
| 2026-04-27 20:45 | 48.15007 | -6.05512 | 36183 ft | 444 kts | 341° |
| 2026-04-27 20:46 | 48.20695 | -6.08921 | 36196 ft | 444 kts | 341° |
| 2026-04-27 20:46 | 48.26435 | -6.12369 | 36201 ft | 444 kts | 341° |
| 2026-04-27 20:47 | 48.32120 | -6.15798 | 36201 ft | 442 kts | 341° |
| 2026-04-27 20:47 | 48.37799 | -6.19229 | 36202 ft | 440 kts | 340° |
| 2026-04-27 20:48 | 48.42442 | -6.22478 | 36234 ft | 441 kts | 335° |
| 2026-04-27 20:48 | 48.48606 | -6.27911 | 36220 ft | 442 kts | 332° |
| 2026-04-27 20:49 | 48.53788 | -6.32719 | 36223 ft | 440 kts | 332° |
| 2026-04-27 20:49 | 48.58988 | -6.37549 | 36233 ft | 439 kts | 332° |
| 2026-04-27 20:50 | 48.64175 | -6.42371 | 36227 ft | 439 kts | 332° |
| 2026-04-27 20:50 | 48.69355 | -6.47196 | 36240 ft | 438 kts | 333° |
| 2026-04-27 20:51 | 48.74499 | -6.52005 | 36262 ft | 436 kts | 333° |
| 2026-04-27 20:51 | 48.79636 | -6.56808 | 36240 ft | 434 kts | 333° |
| 2026-04-27 20:52 | 48.84724 | -6.61583 | 36249 ft | 432 kts | 333° |
| 2026-04-27 20:52 | 48.89840 | -6.66390 | 36231 ft | 432 kts | 332° |
| 2026-04-27 20:53 | 48.94925 | -6.71183 | 36245 ft | 431 kts | 332° |
| 2026-04-27 20:53 | 49.00019 | -6.75999 | 36243 ft | 430 kts | 332° |
| 2026-04-27 20:54 | 49.07585 | -6.83171 | 36241 ft | 429 kts | 333° |
| 2026-04-27 20:55 | 49.12638 | -6.87976 | 36254 ft | 428 kts | 333° |
| 2026-04-27 20:55 | 49.17675 | -6.92776 | 36259 ft | 427 kts | 333° |
| 2026-04-27 20:56 | 49.22692 | -6.97569 | 36260 ft | 427 kts | 333° |
| 2026-04-27 20:56 | 49.27696 | -7.02368 | 36262 ft | 425 kts | 333° |
| 2026-04-27 20:57 | 49.32702 | -7.07181 | 36278 ft | 425 kts | 333° |
| 2026-04-27 20:57 | 49.37768 | -7.11782 | 36284 ft | 422 kts | 337° |
| 2026-04-27 20:58 | 49.43029 | -7.15586 | 36275 ft | 419 kts | 341° |
| 2026-04-27 20:58 | 49.48367 | -7.19160 | 36279 ft | 419 kts | 341° |
| 2026-04-27 20:59 | 49.53675 | -7.22712 | 36281 ft | 418 kts | 341° |
| 2026-04-27 20:59 | 49.58973 | -7.26274 | 36286 ft | 416 kts | 341° |
| 2026-04-27 21:00 | 49.64276 | -7.29845 | 36282 ft | 416 kts | 341° |
| 2026-04-27 21:00 | 49.69553 | -7.33409 | 36291 ft | 416 kts | 341° |
| 2026-04-27 21:01 | 49.74857 | -7.37005 | 36286 ft | 415 kts | 341° |
| 2026-04-27 21:01 | 49.80118 | -7.40580 | 36294 ft | 415 kts | 341° |
| 2026-04-27 21:02 | 49.85362 | -7.44150 | 36293 ft | 414 kts | 342° |
| 2026-04-27 21:02 | 49.90621 | -7.47737 | 36297 ft | 414 kts | 341° |
| 2026-04-27 21:03 | 49.95900 | -7.51346 | 36308 ft | 415 kts | 341° |
| 2026-04-27 21:03 | 50.01187 | -7.54973 | 36308 ft | 414 kts | 341° |
| 2026-04-27 21:04 | 50.06426 | -7.58576 | 36308 ft | 413 kts | 341° |
| 2026-04-27 21:04 | 50.11673 | -7.62189 | 36307 ft | 413 kts | 341° |
| 2026-04-27 21:05 | 50.16913 | -7.65810 | 36306 ft | 414 kts | 341° |
| 2026-04-27 21:05 | 50.22158 | -7.69444 | 36313 ft | 413 kts | 341° |
| 2026-04-27 21:06 | 50.27397 | -7.73079 | 36316 ft | 413 kts | 341° |
| 2026-04-27 21:06 | 50.32630 | -7.76719 | 36315 ft | 413 kts | 341° |
| 2026-04-27 21:06 | 50.35229 | -7.78533 | 36124 ft | 413 kts | 341° |
| 2026-04-27 21:07 | 50.37853 | -7.80368 | 35908 ft | 410 kts | 341° |
| 2026-04-27 21:07 | 50.40436 | -7.82177 | 35687 ft | 406 kts | 341° |
| 2026-04-27 21:07 | 50.43000 | -7.83974 | 35468 ft | 402 kts | 341° |
| 2026-04-27 21:07 | 50.45526 | -7.85745 | 35248 ft | 399 kts | 342° |
| 2026-04-27 21:08 | 50.48044 | -7.87513 | 35019 ft | 397 kts | 342° |
| 2026-04-27 21:08 | 50.50568 | -7.89283 | 34664 ft | 396 kts | 342° |
| 2026-04-27 21:08 | 50.53075 | -7.91043 | 34205 ft | 397 kts | 342° |
| 2026-04-27 21:08 | 50.55577 | -7.92800 | 33663 ft | 398 kts | 342° |
| 2026-04-27 21:09 | 50.58086 | -7.94569 | 33276 ft | 393 kts | 342° |
| 2026-04-27 21:09 | 50.60552 | -7.96309 | 32917 ft | 392 kts | 342° |
| 2026-04-27 21:09 | 50.63028 | -7.98057 | 32509 ft | 390 kts | 342° |
| 2026-04-27 21:09 | 50.65525 | -7.99678 | 32092 ft | 383 kts | 345° |
| 2026-04-27 21:10 | 50.68016 | -8.01053 | 31664 ft | 379 kts | 347° |
| 2026-04-27 21:10 | 50.70506 | -8.02281 | 31228 ft | 376 kts | 348° |
| 2026-04-27 21:10 | 50.72973 | -8.03474 | 30797 ft | 373 kts | 348° |
| 2026-04-27 21:10 | 50.75438 | -8.04662 | 30360 ft | 370 kts | 348° |
| 2026-04-27 21:11 | 50.77898 | -8.05852 | 29926 ft | 367 kts | 348° |
| 2026-04-27 21:11 | 50.80301 | -8.07013 | 29471 ft | 364 kts | 348° |
| 2026-04-27 21:11 | 50.82700 | -8.08177 | 29003 ft | 362 kts | 348° |
| 2026-04-27 21:11 | 50.85106 | -8.09343 | 28530 ft | 359 kts | 348° |
| 2026-04-27 21:12 | 50.87476 | -8.10496 | 28072 ft | 355 kts | 348° |
| 2026-04-27 21:12 | 50.89821 | -8.11636 | 27649 ft | 351 kts | 348° |
| 2026-04-27 21:12 | 50.92131 | -8.12764 | 27203 ft | 348 kts | 348° |
| 2026-04-27 21:12 | 50.94412 | -8.13875 | 26740 ft | 345 kts | 347° |
| 2026-04-27 21:13 | 50.96693 | -8.14988 | 26267 ft | 342 kts | 347° |
| 2026-04-27 21:13 | 50.98927 | -8.16080 | 25835 ft | 339 kts | 347° |
| 2026-04-27 21:13 | 51.01184 | -8.17182 | 25381 ft | 336 kts | 347° |
| 2026-04-27 21:13 | 51.03404 | -8.18268 | 24944 ft | 333 kts | 347° |
| 2026-04-27 21:14 | 51.05582 | -8.19337 | 24529 ft | 330 kts | 347° |
| 2026-04-27 21:14 | 51.07764 | -8.20408 | 24106 ft | 327 kts | 347° |
| 2026-04-27 21:14 | 51.09921 | -8.21469 | 23686 ft | 325 kts | 347° |
| 2026-04-27 21:14 | 51.12074 | -8.22526 | 23250 ft | 324 kts | 346° |
| 2026-04-27 21:15 | 51.14220 | -8.23584 | 22838 ft | 322 kts | 346° |
| 2026-04-27 21:15 | 51.16343 | -8.24633 | 22441 ft | 320 kts | 347° |
| 2026-04-27 21:15 | 51.18442 | -8.25669 | 22026 ft | 319 kts | 346° |
| 2026-04-27 21:15 | 51.20564 | -8.26716 | 21613 ft | 317 kts | 346° |
| 2026-04-27 21:16 | 51.22636 | -8.27738 | 21227 ft | 315 kts | 346° |
| 2026-04-27 21:16 | 51.24723 | -8.28783 | 20826 ft | 314 kts | 344° |
| 2026-04-27 21:16 | 51.26691 | -8.30250 | 20422 ft | 317 kts | 333° |
| 2026-04-27 21:16 | 51.28485 | -8.32359 | 20007 ft | 321 kts | 323° |
| 2026-04-27 21:17 | 51.30070 | -8.34880 | 19616 ft | 321 kts | 320° |
| 2026-04-27 21:17 | 51.31618 | -8.37477 | 19209 ft | 320 kts | 319° |
| 2026-04-27 21:17 | 51.33160 | -8.40084 | 18813 ft | 319 kts | 319° |
| 2026-04-27 21:17 | 51.34654 | -8.42610 | 18442 ft | 317 kts | 319° |
| 2026-04-27 21:18 | 51.36188 | -8.45196 | 18050 ft | 315 kts | 319° |
| 2026-04-27 21:18 | 51.37688 | -8.47724 | 17648 ft | 314 kts | 319° |
| 2026-04-27 21:18 | 51.39175 | -8.50230 | 17252 ft | 314 kts | 319° |
| 2026-04-27 21:18 | 51.40682 | -8.52768 | 16833 ft | 314 kts | 319° |
| 2026-04-27 21:19 | 51.42267 | -8.55086 | 16399 ft | 309 kts | 329° |
| 2026-04-27 21:19 | 51.44144 | -8.56717 | 15963 ft | 304 kts | 342° |
| 2026-04-27 21:19 | 51.46152 | -8.57681 | 15555 ft | 302 kts | 348° |
| 2026-04-27 21:20 | 51.50229 | -8.59329 | 14720 ft | 301 kts | 348° |
| 2026-04-27 21:20 | 51.52238 | -8.60140 | 14301 ft | 301 kts | 348° |
| 2026-04-27 21:20 | 51.54277 | -8.60968 | 13889 ft | 300 kts | 348° |
| 2026-04-27 21:20 | 51.56290 | -8.61789 | 13483 ft | 299 kts | 348° |
| 2026-04-27 21:21 | 51.58287 | -8.62606 | 13093 ft | 297 kts | 348° |
| 2026-04-27 21:21 | 51.60287 | -8.63425 | 12707 ft | 295 kts | 348° |
| 2026-04-27 21:21 | 51.62244 | -8.64228 | 12317 ft | 293 kts | 348° |
| 2026-04-27 21:21 | 51.64234 | -8.65044 | 11918 ft | 291 kts | 347° |
| 2026-04-27 21:22 | 51.66172 | -8.65842 | 11530 ft | 290 kts | 347° |
| 2026-04-27 21:22 | 51.68130 | -8.66647 | 11148 ft | 288 kts | 347° |
| 2026-04-27 21:22 | 51.70039 | -8.67435 | 10767 ft | 285 kts | 347° |
| 2026-04-27 21:22 | 51.71954 | -8.68224 | 10459 ft | 280 kts | 348° |
| 2026-04-27 21:23 | 51.73796 | -8.68986 | 10366 ft | 266 kts | 348° |
| 2026-04-27 21:23 | 51.75550 | -8.69710 | 10107 ft | 261 kts | 348° |
| 2026-04-27 21:23 | 51.77306 | -8.70433 | 9749 ft | 260 kts | 347° |
| 2026-04-27 21:23 | 51.79055 | -8.71145 | 9422 ft | 258 kts | 349° |
| 2026-04-27 21:24 | 51.80811 | -8.71778 | 9076 ft | 257 kts | 349° |
| 2026-04-27 21:24 | 51.82535 | -8.72380 | 8727 ft | 255 kts | 349° |
| 2026-04-27 21:24 | 51.84269 | -8.72988 | 8384 ft | 254 kts | 350° |
| 2026-04-27 21:24 | 51.86003 | -8.73601 | 8058 ft | 252 kts | 350° |
| 2026-04-27 21:25 | 51.87701 | -8.74202 | 7729 ft | 251 kts | 350° |
| 2026-04-27 21:25 | 51.89401 | -8.74808 | 7402 ft | 249 kts | 350° |
| 2026-04-27 21:25 | 51.91090 | -8.75411 | 7084 ft | 248 kts | 350° |
| 2026-04-27 21:25 | 51.92758 | -8.76006 | 6764 ft | 246 kts | 350° |
| 2026-04-27 21:26 | 51.94416 | -8.76598 | 6462 ft | 244 kts | 350° |
| 2026-04-27 21:26 | 51.96067 | -8.77189 | 6349 ft | 234 kts | 350° |
| 2026-04-27 21:26 | 51.97610 | -8.77714 | 6338 ft | 218 kts | 356° |
| 2026-04-27 21:26 | 51.99072 | -8.77385 | 6338 ft | 216 kts | 25° |
| 2026-04-27 21:27 | 52.00232 | -8.75874 | 6171 ft | 217 kts | 52° |
| 2026-04-27 21:27 | 52.00876 | -8.73609 | 5792 ft | 222 kts | 66° |
| 2026-04-27 21:27 | 52.01395 | -8.71268 | 5452 ft | 222 kts | 66° |
| 2026-04-27 21:27 | 52.01928 | -8.68898 | 5026 ft | 225 kts | 66° |
| 2026-04-27 21:28 | 52.02460 | -8.66552 | 4593 ft | 222 kts | 66° |
| 2026-04-27 21:28 | 52.02974 | -8.64234 | 4189 ft | 215 kts | 71° |
| 2026-04-27 21:28 | 52.02990 | -8.61885 | 3849 ft | 213 kts | 107° |
| 2026-04-27 21:28 | 52.02104 | -8.60020 | 3539 ft | 214 kts | 141° |
| 2026-04-27 21:29 | 52.00778 | -8.58900 | 3252 ft | 215 kts | 154° |
| 2026-04-27 21:29 | 51.99393 | -8.58081 | 3093 ft | 205 kts | 157° |
| 2026-04-27 21:29 | 51.98109 | -8.57380 | 3116 ft | 184 kts | 156° |
| 2026-04-27 21:29 | 51.96964 | -8.56733 | 3000 ft | 167 kts | 155° |
| 2026-04-27 21:30 | 51.95906 | -8.56111 | 2763 ft | 157 kts | 154° |
| 2026-04-27 21:30 | 51.94917 | -8.55521 | 2543 ft | 146 kts | 154° |
| 2026-04-27 21:30 | 51.93972 | -8.54955 | 2345 ft | 143 kts | 154° |
| 2026-04-27 21:30 | 51.93041 | -8.54397 | 2161 ft | 143 kts | 154° |
| 2026-04-27 21:31 | 51.92115 | -8.53846 | 1983 ft | 142 kts | 155° |
| 2026-04-27 21:31 | 51.91191 | -8.53301 | 1801 ft | 141 kts | 155° |
| 2026-04-27 21:31 | 51.90267 | -8.52747 | 1634 ft | 140 kts | 156° |
| 2026-04-27 21:31 | 51.89359 | -8.52220 | 1397 ft | 138 kts | 156° |
| 2026-04-27 21:32 | 51.88469 | -8.51698 | 1211 ft | 136 kts | 158° |
| 2026-04-27 21:32 | 51.87582 | -8.51167 | 1045 ft | 135 kts | 158° |
| 2026-04-27 21:32 | 51.86699 | -8.50636 | 854 ft | 134 kts | 159° |
| 2026-04-27 21:32 | 51.85830 | -8.50121 | 688 ft | 133 kts | 160° |
| 2026-04-27 21:33 | 51.84968 | -8.49609 | 524 ft | 131 kts | 160° |
| 2026-04-27 21:33 | 51.84180 | -8.49146 | 487 ft | 101 kts | 160° |
| 2026-04-27 21:33 | 51.83678 | -8.48848 | 475 ft | 55 kts | 160° |
| 2026-04-27 21:33 | 51.83410 | -8.48690 | 473 ft | 26 kts | 160° |
| 2026-04-27 21:34 | 51.83307 | -8.48616 | 472 ft | 10 kts | 131° |
| 2026-04-27 21:34 | 51.83271 | -8.48530 | 472 ft | 8 kts | 163° |
| 2026-04-27 21:34 | 51.83251 | -8.48593 | 472 ft | 9 kts | 321° |
| 2026-04-27 21:34 | 51.83324 | -8.48635 | 472 ft | 12 kts | 340° |
| 2026-04-27 21:35 | 51.83416 | -8.48689 | 473 ft | 15 kts | 339° |
| 2026-04-27 21:35 | 51.83524 | -8.48754 | 473 ft | 17 kts | 339° |
| 2026-04-27 21:35 | 51.83644 | -8.48825 | 474 ft | 19 kts | 339° |
| 2026-04-27 21:35 | 51.83773 | -8.48901 | 477 ft | 20 kts | 339° |
| 2026-04-27 21:36 | 51.83908 | -8.48982 | 480 ft | 20 kts | 339° |
| 2026-04-27 21:36 | 51.84045 | -8.49063 | 484 ft | 21 kts | 339° |
| 2026-04-27 21:36 | 51.84182 | -8.49143 | 487 ft | 20 kts | 340° |
| 2026-04-27 21:36 | 51.84282 | -8.49185 | 489 ft | 11 kts | 17° |
| 2026-04-27 21:37 | 51.84328 | -8.49081 | 490 ft | 10 kts | 63° |
| 2026-04-27 21:37 | 51.84359 | -8.48989 | 491 ft | 7 kts | 41° |
| 2026-04-27 21:37 | 51.84411 | -8.48994 | 492 ft | 8 kts | 339° |
| 2026-04-27 21:37 | 51.84463 | -8.49026 | 493 ft | 8 kts | 339° |
| 2026-04-27 21:38 | 51.84520 | -8.49060 | 493 ft | 9 kts | 339° |
| 2026-04-27 21:38 | 51.84582 | -8.49096 | 494 ft | 9 kts | 340° |
| 2026-04-27 21:38 | 51.84647 | -8.49134 | 495 ft | 10 kts | 339° |
| 2026-04-27 21:38 | 51.84714 | -8.49174 | 496 ft | 10 kts | 339° |
| 2026-04-27 21:39 | 51.84784 | -8.49208 | 497 ft | 10 kts | 347° |
| 2026-04-27 21:39 | 51.84848 | -8.49222 | 497 ft | 6 kts | 18° |
| 2026-04-27 21:39 | 51.84874 | -8.49161 | 498 ft | 6 kts | 69° |
| 2026-04-27 21:39 | 51.84888 | -8.49097 | 500 ft | 3 kts | 69° |
| 2026-04-27 21:40 | 51.84892 | -8.49081 | 500 ft | 0 kts | 69° |